createdAt,value
2019-05-19T00:01:26.394Z,106.13
2019-05-19T00:03:54.886Z,104.87
2019-05-19T00:06:23.362Z,103.87
2019-05-19T00:08:51.824Z,102.40
2019-05-19T00:11:20.443Z,99.90
2019-05-19T00:13:48.901Z,99.20
2019-05-19T00:16:17.406Z,101.57
2019-05-19T00:18:46.019Z,103.93
2019-05-19T00:21:14.470Z,100.23
2019-05-19T00:23:43.098Z,106.40
2019-05-19T00:26:11.559Z,99.63
2019-05-19T00:28:40.084Z,101.43
2019-05-19T00:31:08.608Z,98.93
2019-05-19T00:33:37.202Z,100.57
2019-05-19T00:36:05.794Z,108.63
2019-05-19T00:38:34.298Z,108.40
2019-05-19T00:41:02.731Z,106.67
2019-05-19T00:43:31.223Z,110.57
2019-05-19T00:45:59.848Z,107.50
2019-05-19T00:48:28.439Z,105.70
2019-05-19T00:50:56.890Z,102.50
2019-05-19T00:53:25.422Z,108.20
2019-05-19T00:55:53.918Z,112.33
2019-05-19T00:58:22.455Z,109.30
2019-05-19T01:00:51.002Z,107.80
2019-05-19T01:03:19.427Z,108.37
2019-05-19T01:05:47.967Z,114.10
2019-05-19T01:08:16.435Z,109.83
2019-05-19T01:10:45.162Z,110.53
2019-05-19T01:13:13.930Z,105.73
2019-05-19T01:15:42.588Z,109.33
2019-05-19T01:18:11.043Z,114.73
2019-05-19T01:20:39.552Z,109.33
2019-05-19T01:23:08.030Z,109.63
2019-05-19T01:25:36.730Z,108.00
2019-05-19T01:28:05.305Z,109.23
2019-05-19T01:30:33.887Z,112.13
2019-05-19T01:33:02.470Z,112.57
2019-05-19T01:35:31.108Z,109.10
2019-05-19T01:37:59.759Z,110.20
2019-05-19T01:40:28.449Z,112.50
2019-05-19T01:42:56.951Z,109.03
2019-05-19T01:45:25.774Z,108.67
2019-05-19T01:47:54.420Z,105.50
2019-05-19T01:50:23.044Z,110.73
2019-05-19T01:52:51.542Z,109.90
2019-05-19T01:55:20.126Z,108.33
2019-05-19T01:57:48.816Z,116.80
2019-05-19T02:00:18.043Z,113.43
2019-05-19T02:02:46.593Z,110.70
2019-05-19T02:05:15.159Z,107.30
2019-05-19T02:07:43.614Z,106.33
2019-05-19T02:10:12.148Z,110.87
2019-05-19T02:12:40.739Z,114.67
2019-05-19T02:15:09.256Z,115.07
2019-05-19T02:17:37.733Z,111.67
2019-05-19T02:20:07.338Z,110.07
2019-05-19T02:22:35.853Z,111.13
2019-05-19T02:25:04.832Z,115.80
2019-05-19T02:27:33.319Z,109.33
2019-05-19T02:30:02.295Z,109.73
2019-05-19T02:32:31.142Z,113.70
2019-05-19T02:34:59.722Z,111.70
2019-05-19T02:37:28.255Z,112.93
2019-05-19T02:39:56.726Z,104.40
2019-05-19T02:42:25.282Z,113.53
2019-05-19T02:44:53.750Z,111.17
2019-05-19T02:47:22.300Z,108.67
2019-05-19T02:49:50.778Z,116.13
2019-05-19T02:52:19.483Z,106.40
2019-05-19T02:54:47.942Z,113.13
2019-05-19T02:57:16.440Z,107.73
2019-05-19T02:59:45.088Z,114.27
2019-05-19T03:02:14.938Z,114.13
2019-05-19T03:04:43.489Z,110.83
2019-05-19T03:07:12.010Z,113.27
2019-05-19T03:09:40.468Z,106.60
2019-05-19T03:12:08.923Z,116.70
2019-05-19T03:14:37.734Z,112.47
2019-05-19T03:17:06.165Z,112.57
2019-05-19T03:19:34.707Z,109.93
2019-05-19T03:22:03.266Z,115.43
2019-05-19T03:24:31.782Z,118.13
2019-05-19T03:27:00.226Z,114.77
2019-05-19T03:29:30.383Z,104.67
2019-05-19T03:32:03.641Z,117.23
2019-05-19T03:34:32.121Z,113.17
2019-05-19T03:37:00.658Z,114.73
2019-05-19T03:39:29.239Z,117.83
2019-05-19T03:41:57.706Z,118.47
2019-05-19T03:44:26.185Z,109.03
2019-05-19T03:46:54.689Z,111.83
2019-05-19T03:49:23.199Z,115.90
2019-05-19T03:51:51.886Z,118.73
2019-05-19T03:54:20.363Z,113.93
2019-05-19T03:56:48.844Z,116.20
2019-05-19T03:59:17.426Z,119.23
2019-05-19T04:01:45.953Z,112.13
2019-05-19T04:04:14.537Z,117.47
2019-05-19T04:06:42.991Z,119.10
2019-05-19T04:09:11.466Z,120.93
2019-05-19T04:11:39.980Z,114.40
2019-05-19T04:14:08.398Z,116.40
2019-05-19T04:16:36.858Z,115.17
2019-05-19T04:19:05.339Z,117.20
2019-05-19T04:21:48.424Z,116.97
2019-05-19T04:24:04.005Z,121.80
2019-05-19T04:26:32.528Z,120.90
2019-05-19T04:29:01.039Z,113.63
2019-05-19T04:31:29.481Z,111.80
2019-05-19T04:33:57.921Z,115.97
2019-05-19T04:36:26.573Z,110.37
2019-05-19T04:38:55.108Z,123.07
2019-05-19T04:41:23.731Z,117.90
2019-05-19T04:43:52.213Z,123.63
2019-05-19T04:46:20.811Z,121.27
2019-05-19T04:48:49.274Z,120.70
2019-05-19T04:51:17.841Z,121.30
2019-05-19T04:53:46.309Z,122.40
2019-05-19T04:56:14.889Z,123.13
2019-05-19T04:58:43.322Z,126.63
2019-05-19T05:01:11.850Z,119.07
2019-05-19T05:03:41.576Z,126.87
2019-05-19T05:06:10.044Z,123.77
2019-05-19T05:08:38.536Z,119.77
2019-05-19T05:11:06.997Z,121.43
2019-05-19T05:13:35.517Z,126.20
2019-05-19T05:16:04.040Z,118.40
2019-05-19T05:18:32.503Z,121.67
2019-05-19T05:21:00.982Z,119.30
2019-05-19T05:23:29.458Z,122.80
2019-05-19T05:25:57.942Z,118.17
2019-05-19T05:28:26.597Z,120.80
2019-05-19T05:30:55.160Z,124.13
2019-05-19T05:33:23.819Z,124.13
2019-05-19T05:35:52.439Z,124.30
2019-05-19T05:38:20.930Z,120.90
2019-05-19T05:40:49.411Z,119.77
2019-05-19T05:43:17.963Z,116.63
2019-05-19T05:45:46.406Z,124.80
2019-05-19T05:48:15.062Z,131.93
2019-05-19T05:50:43.630Z,124.50
2019-05-19T05:53:12.095Z,124.77
2019-05-19T05:55:40.537Z,126.87
2019-05-19T05:58:09.037Z,123.97
2019-05-19T06:00:37.703Z,123.27
2019-05-19T06:03:06.172Z,126.80
2019-05-19T06:05:34.809Z,131.63
2019-05-19T06:08:03.258Z,132.17
2019-05-19T06:10:31.757Z,132.10
2019-05-19T06:13:00.234Z,127.27
2019-05-19T06:15:28.859Z,133.03
2019-05-19T06:17:57.373Z,127.20
2019-05-19T06:20:25.948Z,126.23
2019-05-19T06:22:56.938Z,126.93
2019-05-19T06:25:24.774Z,133.53
2019-05-19T06:27:53.318Z,124.63
2019-05-19T06:30:21.841Z,126.87
2019-05-19T06:32:57.711Z,129.93
2019-05-19T06:35:26.217Z,134.03
2019-05-19T06:37:54.737Z,134.37
2019-05-19T06:40:23.344Z,133.83
2019-05-19T06:42:51.844Z,137.53
2019-05-19T06:45:20.327Z,134.00
2019-05-19T06:47:48.911Z,136.37
2019-05-19T06:50:17.968Z,140.50
2019-05-19T06:52:46.566Z,132.63
2019-05-19T06:55:15.236Z,134.03
2019-05-19T06:57:43.700Z,137.60
2019-05-19T07:00:12.139Z,133.23
2019-05-19T07:02:40.698Z,136.80
2019-05-19T07:05:09.532Z,135.33
2019-05-19T07:07:37.988Z,140.83
2019-05-19T07:10:07.319Z,134.77
2019-05-19T07:12:35.846Z,138.17
2019-05-19T07:15:05.047Z,139.77
2019-05-19T07:17:33.610Z,142.13
2019-05-19T07:20:02.077Z,139.30
2019-05-19T07:22:30.518Z,143.33
2019-05-19T07:24:59.071Z,143.07
2019-05-19T07:27:27.534Z,143.70
2019-05-19T07:29:56.011Z,147.30
2019-05-19T07:32:24.483Z,146.93
2019-05-19T07:34:53.092Z,140.23
2019-05-19T07:37:21.680Z,138.20
2019-05-19T07:39:50.140Z,141.53
2019-05-19T07:42:18.695Z,138.50
2019-05-19T07:44:47.146Z,142.73
2019-05-19T07:47:15.855Z,142.27
2019-05-19T07:49:44.278Z,151.73
2019-05-19T07:52:12.775Z,142.47
2019-05-19T07:54:41.219Z,142.03
2019-05-19T07:57:09.823Z,141.10
2019-05-19T07:59:38.322Z,148.33
2019-05-19T08:02:06.827Z,146.83
2019-05-19T08:04:35.290Z,142.67
2019-05-19T08:07:03.758Z,138.53
2019-05-19T08:09:32.267Z,138.83
2019-05-19T08:12:00.689Z,127.10
2019-05-19T08:14:29.342Z,133.17
2019-05-19T08:16:57.943Z,134.60
2019-05-19T08:19:26.384Z,129.80
2019-05-19T08:21:55.008Z,129.80
2019-05-19T08:24:23.501Z,130.60
2019-05-19T08:26:52.053Z,117.97
2019-05-19T08:29:20.759Z,111.23
2019-05-19T08:31:49.243Z,113.57
2019-05-19T08:34:17.786Z,115.83
2019-05-19T08:36:46.308Z,124.43
2019-05-19T08:39:14.773Z,124.83
2019-05-19T08:41:43.272Z,122.47
2019-05-19T08:44:11.771Z,126.70
2019-05-19T08:46:40.236Z,128.60
2019-05-19T08:49:08.748Z,122.90
2019-05-19T08:51:37.211Z,128.30
2019-05-19T08:54:14.309Z,132.93
2019-05-19T08:56:35.891Z,127.73
2019-05-19T08:59:04.353Z,123.30
2019-05-19T09:01:32.874Z,116.23
2019-05-19T09:04:01.354Z,115.57
2019-05-19T09:06:29.821Z,124.40
2019-05-19T09:08:58.378Z,120.33
2019-05-19T09:11:26.864Z,120.57
2019-05-19T09:13:55.339Z,110.80
2019-05-19T09:16:23.861Z,101.73
2019-05-19T09:18:55.490Z,99.27
2019-05-19T09:21:24.021Z,96.23
2019-05-19T09:23:52.594Z,100.33
2019-05-19T09:26:21.173Z,103.57
2019-05-19T09:28:49.820Z,94.13
2019-05-19T09:31:18.441Z,100.77
2019-05-19T09:33:47.070Z,98.70
2019-05-19T09:36:15.711Z,98.27
2019-05-19T09:38:44.208Z,93.63
2019-05-19T09:41:12.720Z,94.70
2019-05-19T09:43:41.189Z,95.57
2019-05-19T09:46:09.658Z,89.33
2019-05-19T09:48:38.113Z,88.17
2019-05-19T09:51:08.206Z,95.40
2019-05-19T09:53:36.662Z,92.23
2019-05-19T09:56:05.182Z,89.00
2019-05-19T09:58:33.638Z,93.23
2019-05-19T10:01:02.090Z,87.17
2019-05-19T10:03:30.710Z,89.40
2019-05-19T10:05:59.169Z,90.40
2019-05-19T10:08:31.354Z,88.60
2019-05-19T10:11:06.259Z,89.50
2019-05-19T10:13:37.689Z,85.77
2019-05-19T10:16:04.945Z,88.27
2019-05-19T10:18:33.378Z,83.10
2019-05-19T10:21:01.842Z,86.00
2019-05-19T10:23:30.332Z,83.30
2019-05-19T10:25:58.766Z,91.17
2019-05-19T10:28:27.216Z,85.60
2019-05-19T10:30:55.699Z,86.33
2019-05-19T10:33:24.269Z,80.33
2019-05-19T10:35:52.723Z,84.97
2019-05-19T10:38:21.258Z,87.30
2019-05-19T10:40:49.919Z,79.80
2019-05-19T10:43:18.366Z,78.30
2019-05-19T10:45:48.474Z,76.03
2019-05-19T10:48:16.951Z,77.97
2019-05-19T10:50:45.404Z,81.17
2019-05-19T10:53:13.859Z,79.57
2019-05-19T10:55:42.363Z,72.97
2019-05-19T10:58:10.826Z,72.77
2019-05-19T11:00:39.379Z,73.40
2019-05-19T11:03:07.975Z,74.60
2019-05-19T11:05:36.595Z,75.13
2019-05-19T11:08:05.359Z,76.73
2019-05-19T11:10:33.947Z,73.50
2019-05-19T11:13:02.544Z,75.93
2019-05-19T11:15:30.958Z,74.50
2019-05-19T11:17:59.538Z,68.63
2019-05-19T11:20:27.986Z,76.47
2019-05-19T11:22:56.440Z,74.73
2019-05-19T11:25:33.393Z,72.67
2019-05-19T11:27:55.127Z,72.43
2019-05-19T11:30:23.663Z,65.60
2019-05-19T11:32:52.149Z,64.90
2019-05-19T11:35:20.602Z,70.80
2019-05-19T11:37:49.086Z,68.13
2019-05-19T11:40:17.734Z,70.33
2019-05-19T11:42:46.940Z,62.37
2019-05-19T11:45:15.533Z,69.37
2019-05-19T11:47:44.010Z,67.13
2019-05-19T11:50:12.535Z,63.47
2019-05-19T11:52:41.104Z,65.10
2019-05-19T11:55:09.558Z,65.93
2019-05-19T11:57:38.149Z,62.50
2019-05-19T12:00:09.732Z,59.27
2019-05-19T12:02:38.119Z,56.87
2019-05-19T12:05:06.725Z,57.80
2019-05-19T12:07:35.283Z,62.87
2019-05-19T12:10:04.686Z,58.80
2019-05-19T12:12:33.134Z,61.37
2019-05-19T12:15:01.627Z,65.47
2019-05-19T12:17:30.235Z,62.60
2019-05-19T12:19:58.772Z,59.47
2019-05-19T12:22:27.398Z,57.33
2019-05-19T12:24:56.017Z,54.50
2019-05-19T12:27:24.599Z,50.37
2019-05-19T12:29:53.131Z,47.80
2019-05-19T12:32:21.633Z,47.80
2019-05-19T12:34:50.350Z,48.97
2019-05-19T12:37:18.834Z,47.87
2019-05-19T12:39:47.296Z,42.70
2019-05-19T12:42:15.893Z,50.93
2019-05-19T12:44:44.379Z,46.40
2019-05-19T12:47:12.866Z,44.30
2019-05-19T12:49:41.410Z,46.63
2019-05-19T12:52:09.891Z,48.23
2019-05-19T12:54:38.369Z,45.03
2019-05-19T12:57:06.806Z,45.70
2019-05-19T12:59:35.301Z,48.07
2019-05-19T13:02:03.987Z,54.07
2019-05-19T13:04:33.326Z,45.97
2019-05-19T13:07:01.805Z,47.13
2019-05-19T13:09:30.340Z,46.20
2019-05-19T13:11:58.798Z,46.23
2019-05-19T13:14:27.334Z,44.50
2019-05-19T13:16:55.883Z,48.27
2019-05-19T13:19:24.406Z,48.57
2019-05-19T13:21:52.852Z,49.67
2019-05-19T13:24:21.392Z,48.43
2019-05-19T13:26:56.533Z,50.30
2019-05-19T13:29:20.082Z,45.03
2019-05-19T13:31:48.715Z,42.20
2019-05-19T13:34:17.201Z,46.43
2019-05-19T13:36:45.707Z,46.17
2019-05-19T13:39:14.283Z,47.30
2019-05-19T13:41:42.722Z,56.60
2019-05-19T13:44:11.250Z,49.67
2019-05-19T13:46:39.772Z,55.73
2019-05-19T13:49:08.303Z,48.63
2019-05-19T13:51:36.923Z,53.97
2019-05-19T13:54:05.360Z,53.37
2019-05-19T13:56:33.852Z,49.80
2019-05-19T13:59:02.382Z,50.77
2019-05-19T14:01:30.840Z,49.93
2019-05-19T14:03:59.341Z,49.73
2019-05-19T14:06:28.002Z,49.53
2019-05-19T14:08:56.695Z,48.73
2019-05-19T14:11:25.294Z,48.27
2019-05-19T14:13:53.819Z,51.23
2019-05-19T14:16:22.360Z,52.57
2019-05-19T14:18:50.861Z,52.00
2019-05-19T14:21:19.349Z,52.17
2019-05-19T14:23:47.838Z,52.37
2019-05-19T14:26:16.291Z,53.23
2019-05-19T14:28:44.863Z,51.53
2019-05-19T14:31:13.364Z,51.60
2019-05-19T14:33:41.892Z,52.57
2019-05-19T14:36:10.336Z,53.40
2019-05-19T14:38:40.566Z,51.77
2019-05-19T14:41:09.158Z,59.17
2019-05-19T14:43:37.732Z,59.63
2019-05-19T14:46:06.154Z,56.57
2019-05-19T14:48:34.671Z,52.67
2019-05-19T14:51:03.166Z,53.33
2019-05-19T14:53:31.675Z,50.23
2019-05-19T14:56:00.142Z,51.63
2019-05-19T14:58:28.611Z,55.30
2019-05-19T15:00:57.175Z,52.67
2019-05-19T15:03:25.678Z,56.43
2019-05-19T15:05:54.175Z,53.67
2019-05-19T15:08:22.697Z,55.37
2019-05-19T15:10:51.123Z,52.40
2019-05-19T15:13:19.716Z,51.40
2019-05-19T15:15:48.186Z,53.40
2019-05-19T15:18:16.648Z,54.83
2019-05-19T15:20:45.124Z,49.27
2019-05-19T15:23:13.636Z,52.10
2019-05-19T15:25:42.238Z,52.40
2019-05-19T15:28:10.821Z,58.43
2019-05-19T15:30:39.300Z,56.47
2019-05-19T15:33:07.746Z,56.13
2019-05-19T15:35:36.179Z,58.73
2019-05-19T15:38:04.680Z,53.07
2019-05-19T15:40:33.269Z,57.70
2019-05-19T15:43:01.852Z,60.47
2019-05-19T15:45:30.809Z,52.03
2019-05-19T15:47:59.242Z,55.53
2019-05-19T15:50:27.735Z,64.77
2019-05-19T15:52:56.304Z,55.80
2019-05-19T15:55:24.769Z,51.90
2019-05-19T15:57:53.298Z,56.20
2019-05-19T16:00:22.390Z,53.17
2019-05-19T16:02:50.991Z,53.70
2019-05-19T16:05:19.472Z,51.63
2019-05-19T16:07:47.939Z,53.47
2019-05-19T16:10:16.536Z,54.77
2019-05-19T16:12:45.101Z,54.50
2019-05-19T16:15:13.768Z,58.47
2019-05-19T16:17:42.286Z,53.77
2019-05-19T16:20:11.134Z,54.30
2019-05-19T16:22:39.662Z,54.47
2019-05-19T16:25:08.451Z,54.60
2019-05-19T16:27:36.927Z,61.50
2019-05-19T16:30:08.662Z,56.87
2019-05-19T16:32:37.331Z,60.13
2019-05-19T16:35:06.710Z,60.00
2019-05-19T16:37:35.534Z,56.93
2019-05-19T16:40:05.031Z,59.53
2019-05-19T16:42:33.659Z,62.80
2019-05-19T16:45:02.300Z,61.33
2019-05-19T16:47:30.894Z,71.77
2019-05-19T16:49:59.365Z,62.17
2019-05-19T16:52:27.969Z,72.20
2019-05-19T16:55:14.093Z,69.33
2019-05-19T16:57:42.606Z,66.83
2019-05-19T17:00:11.276Z,65.43
2019-05-19T17:02:39.692Z,66.20
2019-05-19T17:05:08.279Z,74.23
2019-05-19T17:07:36.823Z,68.90
2019-05-19T17:10:09.458Z,71.60
2019-05-19T17:12:37.954Z,66.53
2019-05-19T17:15:07.107Z,76.40
2019-05-19T17:17:35.666Z,77.07
2019-05-19T17:20:08.869Z,70.87
2019-05-19T17:22:37.307Z,72.33
2019-05-19T17:25:06.895Z,75.90
2019-05-19T17:27:37.226Z,74.37
2019-05-19T17:30:07.467Z,78.33
2019-05-19T17:32:36.559Z,84.07
2019-05-19T17:35:08.236Z,84.67
2019-05-19T17:37:36.752Z,84.60
2019-05-19T17:40:05.831Z,81.50
2019-05-19T17:42:37.208Z,83.10
2019-05-19T17:45:05.971Z,81.17
2019-05-19T17:47:34.550Z,86.53
2019-05-19T17:50:03.051Z,92.83
2019-05-19T17:52:31.637Z,83.63
2019-05-19T17:55:00.265Z,83.87
2019-05-19T17:57:28.755Z,87.93
2019-05-19T17:59:58.885Z,92.40
2019-05-19T18:02:27.492Z,90.97
2019-05-19T18:04:56.154Z,86.73
2019-05-19T18:07:24.585Z,83.43
2019-05-19T18:09:53.080Z,92.83
2019-05-19T18:12:21.658Z,98.37
2019-05-19T18:14:50.224Z,90.97
2019-05-19T18:17:18.741Z,96.00
2019-05-19T18:19:47.265Z,98.20
2019-05-19T18:22:15.823Z,88.73
2019-05-19T18:24:44.391Z,90.10
2019-05-19T18:27:12.843Z,97.53
2019-05-19T18:29:41.406Z,100.57
2019-05-19T18:32:09.875Z,93.63
2019-05-19T18:34:38.567Z,100.57
2019-05-19T18:37:07.055Z,104.87
2019-05-19T18:39:35.527Z,103.00
2019-05-19T18:42:04.098Z,106.87
2019-05-19T18:44:32.643Z,99.83
2019-05-19T18:47:01.350Z,96.57
2019-05-19T18:49:29.985Z,99.53
2019-05-19T18:51:58.558Z,97.43
2019-05-19T18:54:27.117Z,94.13
2019-05-19T18:56:55.805Z,102.50
2019-05-19T18:59:24.475Z,102.47
2019-05-19T19:01:52.933Z,95.63
2019-05-19T19:04:21.504Z,97.00
2019-05-19T19:06:50.190Z,101.23
2019-05-19T19:09:18.760Z,102.77
2019-05-19T19:11:47.431Z,99.03
2019-05-19T19:14:18.824Z,108.97
2019-05-19T19:16:47.427Z,102.27
2019-05-19T19:19:16.424Z,113.37
2019-05-19T19:21:45.164Z,108.67
2019-05-19T19:24:14.934Z,111.80
2019-05-19T19:26:43.623Z,109.83
2019-05-19T19:29:13.744Z,112.07
2019-05-19T19:31:48.544Z,103.03
2019-05-19T19:34:12.450Z,105.80
2019-05-19T19:36:40.942Z,107.33
2019-05-19T19:39:09.440Z,109.30
2019-05-19T19:41:37.939Z,108.20
2019-05-19T19:44:06.412Z,105.97
2019-05-19T19:46:34.995Z,102.50
2019-05-19T19:49:03.612Z,110.57
2019-05-19T19:51:32.125Z,100.13
2019-05-19T19:54:00.814Z,103.73
2019-05-19T19:56:29.320Z,113.67
2019-05-19T19:58:57.915Z,104.93
2019-05-19T20:01:26.706Z,106.33
2019-05-19T20:03:58.255Z,108.10
2019-05-19T20:06:28.136Z,118.97
2019-05-19T20:08:56.798Z,112.27
2019-05-19T20:11:25.432Z,113.63
2019-05-19T20:13:53.864Z,110.17
2019-05-19T20:16:22.468Z,100.80
2019-05-19T20:18:51.075Z,93.40
2019-05-19T20:21:19.643Z,98.30
2019-05-19T20:23:48.216Z,96.37
2019-05-19T20:26:16.901Z,85.80
2019-05-19T20:28:45.694Z,85.63
2019-05-19T20:31:14.201Z,95.37
2019-05-19T20:33:42.639Z,97.77
2019-05-19T20:36:11.102Z,104.90
2019-05-19T20:38:39.718Z,105.53
2019-05-19T20:41:08.221Z,113.63
2019-05-19T20:43:36.827Z,103.40
2019-05-19T20:46:05.267Z,110.53
2019-05-19T20:48:33.867Z,119.17
2019-05-19T20:51:02.474Z,105.87
2019-05-19T20:53:30.963Z,113.93
2019-05-19T20:56:01.239Z,104.33
2019-05-19T20:58:29.823Z,101.87
2019-05-19T21:00:58.347Z,102.13
2019-05-19T21:03:26.923Z,105.93
2019-05-19T21:05:55.592Z,96.93
2019-05-19T21:08:24.138Z,103.07
2019-05-19T21:10:52.658Z,99.67
2019-05-19T21:13:21.319Z,102.13
2019-05-19T21:15:50.093Z,103.80
2019-05-19T21:18:18.534Z,104.80
2019-05-19T21:20:48.947Z,109.50
2019-05-19T21:23:17.375Z,97.63
2019-05-19T21:25:45.865Z,109.03
2019-05-19T21:28:14.325Z,109.83
2019-05-19T21:30:42.791Z,100.73
2019-05-19T21:33:11.421Z,110.63
2019-05-19T21:35:39.930Z,97.67
2019-05-19T21:38:10.109Z,93.43
2019-05-19T21:40:38.596Z,97.70
2019-05-19T21:43:07.072Z,100.50
2019-05-19T21:45:35.692Z,96.37
2019-05-19T21:48:04.158Z,98.63
2019-05-19T21:50:34.527Z,95.60
2019-05-19T21:53:06.258Z,88.03
2019-05-19T21:55:34.598Z,98.20
2019-05-19T21:58:03.046Z,89.97
2019-05-19T22:00:32.150Z,89.70
2019-05-19T22:03:00.778Z,94.30
2019-05-19T22:05:29.345Z,97.23
2019-05-19T22:08:04.710Z,94.63
2019-05-19T22:10:33.349Z,93.13
2019-05-19T22:13:03.102Z,106.40
2019-05-19T22:15:31.518Z,94.40
2019-05-19T22:18:00.125Z,100.17
2019-05-19T22:20:28.605Z,97.47
2019-05-19T22:22:57.275Z,89.20
2019-05-19T22:25:25.910Z,99.50
2019-05-19T22:27:54.389Z,93.43
2019-05-19T22:30:23.138Z,93.23
2019-05-19T22:32:51.620Z,96.33
2019-05-19T22:35:20.189Z,91.83
2019-05-19T22:37:48.666Z,99.47
2019-05-19T22:40:17.182Z,87.17
2019-05-19T22:42:45.724Z,89.47
2019-05-19T22:45:14.256Z,84.17
2019-05-19T22:47:42.759Z,85.03
2019-05-19T22:50:11.363Z,90.23
2019-05-19T22:52:40.132Z,82.30
2019-05-19T22:55:08.734Z,80.13
2019-05-19T22:57:37.281Z,84.90
2019-05-19T23:00:08.683Z,88.00
2019-05-19T23:02:37.184Z,84.10
2019-05-19T23:05:06.671Z,83.27
2019-05-19T23:07:35.448Z,80.53
2019-05-19T23:10:05.560Z,82.13
2019-05-19T23:12:34.135Z,76.67
2019-05-19T23:15:02.746Z,80.67
2019-05-19T23:17:33.007Z,84.83
2019-05-19T23:20:01.491Z,84.87
2019-05-19T23:22:30.107Z,79.77
2019-05-19T23:24:58.513Z,82.50
2019-05-19T23:27:26.966Z,80.93
2019-05-19T23:29:55.444Z,79.03
2019-05-19T23:32:24.106Z,83.23
2019-05-19T23:34:52.644Z,80.03
2019-05-19T23:37:21.094Z,87.27
2019-05-19T23:39:49.598Z,81.60
2019-05-19T23:42:18.067Z,77.83
2019-05-19T23:44:46.573Z,76.40
2019-05-19T23:47:15.220Z,76.57
2019-05-19T23:49:43.742Z,75.73
2019-05-19T23:52:12.310Z,74.63
2019-05-19T23:54:40.767Z,63.30
2019-05-19T23:57:09.286Z,64.77
2019-05-19T23:59:37.844Z,62.57
